Terminal Aerodrome Forecast
Issued by NWS Grand Forks, ND

Home | Current Version | Previous Version | Text Only | Print | Product List | Glossary On
Versions: 1 2 3 4 5 6 7 8 9 10 11 12 13 14 15 16 17 18
000
FTUS43 KFGF 011700
TAFGFK
TAF
KGFK 011720Z 0118/0218 36011KT P6SM SCT110
     FM012000 33007KT P6SM FEW200
     FM020500 19007KT P6SM SKC
     FM021400 22008KT P6SM OVC100=

USA.gov is the U.S. government's official web portal to all federal, state and local government web resources and services.